sensor_id;sensor_type;location;lat;lon;timestamp;pressure;altitude;pressure_sealevel;temperature;humidity
13011;BME280;6786;57.632;11.962;2023-02-18T00:01:41;99101.97;;;18.78;42.26
13011;BME280;6786;57.632;11.962;2023-02-18T00:04:09;99113.69;;;18.69;42.33
13011;BME280;6786;57.632;11.962;2023-02-18T00:06:38;99135.78;;;18.79;42.37
13011;BME280;6786;57.632;11.962;2023-02-18T00:09:07;99130.44;;;18.79;42.36
13011;BME280;6786;57.632;11.962;2023-02-18T00:11:37;99138.44;;;18.79;42.25
13011;BME280;6786;57.632;11.962;2023-02-18T00:14:07;99144.78;;;18.78;42.26
13011;BME280;6786;57.632;11.962;2023-02-18T00:16:36;99155.50;;;18.78;42.26
13011;BME280;6786;57.632;11.962;2023-02-18T00:19:09;99164.19;;;18.80;42.28
13011;BME280;6786;57.632;11.962;2023-02-18T00:21:38;99169.22;;;18.75;42.30
13011;BME280;6786;57.632;11.962;2023-02-18T00:24:07;99171.56;;;18.78;42.19
13011;BME280;6786;57.632;11.962;2023-02-18T00:26:36;99182.25;;;18.78;42.16
13011;BME280;6786;57.632;11.962;2023-02-18T00:29:07;99166.75;;;18.65;42.09
13011;BME280;6786;57.632;11.962;2023-02-18T00:31:37;99168.91;;;18.62;42.15
13011;BME280;6786;57.632;11.962;2023-02-18T00:34:09;99160.25;;;18.52;42.13
13011;BME280;6786;57.632;11.962;2023-02-18T00:36:38;99165.44;;;18.53;42.10
13011;BME280;6786;57.632;11.962;2023-02-18T00:39:10;99221.41;;;18.79;42.11
13011;BME280;6786;57.632;11.962;2023-02-18T00:41:38;99224.09;;;18.79;42.20
13011;BME280;6786;57.632;11.962;2023-02-18T00:44:07;99239.47;;;18.77;42.03
13011;BME280;6786;57.632;11.962;2023-02-18T00:46:35;99231.28;;;18.78;42.13
13011;BME280;6786;57.632;11.962;2023-02-18T00:49:05;99241.97;;;18.78;42.12
13011;BME280;6786;57.632;11.962;2023-02-18T00:51:35;99240.16;;;18.71;42.01
13011;BME280;6786;57.632;11.962;2023-02-18T00:54:03;99262.56;;;18.78;42.15
13011;BME280;6786;57.632;11.962;2023-02-18T00:56:32;99266.25;;;18.77;41.96
13011;BME280;6786;57.632;11.962;2023-02-18T00:59:00;99275.28;;;18.76;42.12
13011;BME280;6786;57.632;11.962;2023-02-18T01:01:28;99275.28;;;18.76;41.99
13011;BME280;6786;57.632;11.962;2023-02-18T01:03:58;99292.50;;;18.73;42.19
13011;BME280;6786;57.632;11.962;2023-02-18T01:06:27;99273.13;;;18.71;42.10
13011;BME280;6786;57.632;11.962;2023-02-18T01:08:57;99298.69;;;18.74;41.88
13011;BME280;6786;57.632;11.962;2023-02-18T01:11:25;99246.50;;;18.38;41.97
13011;BME280;6786;57.632;11.962;2023-02-18T01:13:54;99317.25;;;18.75;41.93
13011;BME280;6786;57.632;11.962;2023-02-18T01:16:22;99331.50;;;18.76;42.02
13011;BME280;6786;57.632;11.962;2023-02-18T01:18:51;99292.00;;;18.54;42.04
13011;BME280;6786;57.632;11.962;2023-02-18T01:21:20;99302.06;;;18.60;41.94
13011;BME280;6786;57.632;11.962;2023-02-18T01:23:48;99333.16;;;18.77;41.95
13011;BME280;6786;57.632;11.962;2023-02-18T01:26:18;99341.19;;;18.77;41.92
13011;BME280;6786;57.632;11.962;2023-02-18T01:28:47;99339.19;;;18.63;41.94
13011;BME280;6786;57.632;11.962;2023-02-18T01:31:16;99369.59;;;18.78;41.92
13011;BME280;6786;57.632;11.962;2023-02-18T01:33:44;99379.50;;;18.77;41.86
13011;BME280;6786;57.632;11.962;2023-02-18T01:36:13;99385.00;;;18.76;41.88
13011;BME280;6786;57.632;11.962;2023-02-18T01:38:42;99358.22;;;18.52;41.93
13011;BME280;6786;57.632;11.962;2023-02-18T01:41:11;99357.69;;;18.48;41.85
13011;BME280;6786;57.632;11.962;2023-02-18T01:43:41;99374.47;;;18.58;41.86
13011;BME280;6786;57.632;11.962;2023-02-18T01:46:15;99404.91;;;18.73;41.72
13011;BME280;6786;57.632;11.962;2023-02-18T01:48:46;99414.47;;;18.76;41.85
13011;BME280;6786;57.632;11.962;2023-02-18T01:51:19;99391.00;;;18.62;41.80
13011;BME280;6786;57.632;11.962;2023-02-18T01:53:53;99386.31;;;18.56;41.74
13011;BME280;6786;57.632;11.962;2023-02-18T01:56:27;99423.78;;;18.72;41.82
13011;BME280;6786;57.632;11.962;2023-02-18T01:59:00;99404.72;;;18.59;41.74
13011;BME280;6786;57.632;11.962;2023-02-18T02:01:30;99449.41;;;18.74;41.68
13011;BME280;6786;57.632;11.962;2023-02-18T02:03:59;99427.13;;;18.58;41.84
13011;BME280;6786;57.632;11.962;2023-02-18T02:06:28;99415.41;;;18.51;41.49
13011;BME280;6786;57.632;11.962;2023-02-18T02:08:58;99468.97;;;18.75;41.63
13011;BME280;6786;57.632;11.962;2023-02-18T02:14:34;99467.97;;;18.76;41.54
13011;BME280;6786;57.632;11.962;2023-02-18T02:17:13;99472.66;;;18.74;41.57
13011;BME280;6786;57.632;11.962;2023-02-18T02:20:10;99476.19;;;18.74;41.19
13011;BME280;6786;57.632;11.962;2023-02-18T02:23:23;99486.88;;;18.74;41.05
13011;BME280;6786;57.632;11.962;2023-02-18T02:32:25;99498.72;;;18.72;41.22
13011;BME280;6786;57.632;11.962;2023-02-18T02:35:00;99500.44;;;18.73;41.55
13011;BME280;6786;57.632;11.962;2023-02-18T02:37:35;99497.91;;;18.71;41.52
13011;BME280;6786;57.632;11.962;2023-02-18T02:40:18;99497.06;;;18.71;41.44
13011;BME280;6786;57.632;11.962;2023-02-18T02:42:58;99498.72;;;18.72;41.40
13011;BME280;6786;57.632;11.962;2023-02-18T02:45:40;99484.50;;;18.55;41.51
13011;BME280;6786;57.632;11.962;2023-02-18T02:48:23;99509.44;;;18.72;41.51
13011;BME280;6786;57.632;11.962;2023-02-18T02:51:04;99507.78;;;18.71;41.45
13011;BME280;6786;57.632;11.962;2023-02-18T02:53:36;99513.13;;;18.71;41.43
13011;BME280;6786;57.632;11.962;2023-02-18T02:56:10;99512.44;;;18.61;41.48
13011;BME280;6786;57.632;11.962;2023-02-18T02:58:40;99525.50;;;18.72;41.47
13011;BME280;6786;57.632;11.962;2023-02-18T03:01:23;99525.50;;;18.72;41.24
13011;BME280;6786;57.632;11.962;2023-02-18T03:04:22;99540.56;;;18.73;41.07
13011;BME280;6786;57.632;11.962;2023-02-18T03:07:03;99539.88;;;18.71;41.31
13011;BME280;6786;57.632;11.962;2023-02-18T03:09:44;99553.09;;;18.72;41.33
13011;BME280;6786;57.632;11.962;2023-02-18T03:12:20;99541.53;;;18.72;41.47
13011;BME280;6786;57.632;11.962;2023-02-18T03:14:56;99546.91;;;18.72;41.24
13011;BME280;6786;57.632;11.962;2023-02-18T03:17:29;99540.22;;;18.68;41.45
13011;BME280;6786;57.632;11.962;2023-02-18T03:20:03;99552.25;;;18.72;41.44
13011;BME280;6786;57.632;11.962;2023-02-18T03:22:39;99550.59;;;18.71;41.35
13011;BME280;6786;57.632;11.962;2023-02-18T03:25:09;99489.16;;;18.28;41.49
13011;BME280;6786;57.632;11.962;2023-02-18T03:27:43;99562.97;;;18.72;41.44
13011;BME280;6786;57.632;11.962;2023-02-18T03:30:15;99560.28;;;18.72;41.45
13011;BME280;6786;57.632;11.962;2023-02-18T03:32:45;99557.59;;;18.72;41.35
13011;BME280;6786;57.632;11.962;2023-02-18T03:35:16;99526.59;;;18.53;41.47
13011;BME280;6786;57.632;11.962;2023-02-18T03:37:50;99570.00;;;18.73;41.39
13011;BME280;6786;57.632;11.962;2023-02-18T03:40:20;99568.31;;;18.72;41.40
13011;BME280;6786;57.632;11.962;2023-02-18T03:42:48;99580.72;;;18.73;41.35
13011;BME280;6786;57.632;11.962;2023-02-18T03:45:16;99580.72;;;18.73;41.42
13011;BME280;6786;57.632;11.962;2023-02-18T03:47:44;99576.50;;;18.70;41.37
13011;BME280;6786;57.632;11.962;2023-02-18T03:50:13;99580.72;;;18.73;41.36
13011;BME280;6786;57.632;11.962;2023-02-18T03:52:41;99587.03;;;18.72;41.35
13011;BME280;6786;57.632;11.962;2023-02-18T03:55:10;99579.88;;;18.72;41.36
13011;BME280;6786;57.632;11.962;2023-02-18T03:57:38;99552.84;;;18.50;41.36
13011;BME280;6786;57.632;11.962;2023-02-18T04:00:08;99564.59;;;18.57;41.21
13011;BME280;6786;57.632;11.962;2023-02-18T04:02:37;99591.59;;;18.71;41.32
13011;BME280;6786;57.632;11.962;2023-02-18T04:05:06;99586.06;;;18.73;41.28
13011;BME280;6786;57.632;11.962;2023-02-18T04:07:34;99591.44;;;18.73;41.32
13011;BME280;6786;57.632;11.962;2023-02-18T04:10:02;99586.06;;;18.73;41.42
13011;BME280;6786;57.632;11.962;2023-02-18T04:12:32;99602.13;;;18.73;41.30
13011;BME280;6786;57.632;11.962;2023-02-18T04:15:00;99602.13;;;18.73;41.33
13011;BME280;6786;57.632;11.962;2023-02-18T04:17:28;99583.34;;;18.65;41.32
13011;BME280;6786;57.632;11.962;2023-02-18T04:19:56;99570.44;;;18.60;41.40
13011;BME280;6786;57.632;11.962;2023-02-18T04:22:25;99607.47;;;18.73;41.33
13011;BME280;6786;57.632;11.962;2023-02-18T04:24:53;99618.19;;;18.73;41.25
13011;BME280;6786;57.632;11.962;2023-02-18T04:27:21;99588.00;;;18.55;41.22
13011;BME280;6786;57.632;11.962;2023-02-18T04:29:52;99553.03;;;18.31;41.33
13011;BME280;6786;57.632;11.962;2023-02-18T04:32:20;99619.84;;;18.74;41.20
13011;BME280;6786;57.632;11.962;2023-02-18T04:34:48;99609.16;;;18.74;41.25
13011;BME280;6786;57.632;11.962;2023-02-18T04:37:16;99618.50;;;18.70;41.26
13011;BME280;6786;57.632;11.962;2023-02-18T04:39:45;99618.19;;;18.73;41.26
13011;BME280;6786;57.632;11.962;2023-02-18T04:42:13;99625.22;;;18.74;41.21
13011;BME280;6786;57.632;11.962;2023-02-18T04:44:41;99595.75;;;18.66;41.12
13011;BME280;6786;57.632;11.962;2023-02-18T04:47:14;99609.16;;;18.74;41.23
13011;BME280;6786;57.632;11.962;2023-02-18T04:49:42;99608.31;;;18.73;41.14
13011;BME280;6786;57.632;11.962;2023-02-18T04:52:10;99623.53;;;18.73;41.20
13011;BME280;6786;57.632;11.962;2023-02-18T04:54:38;99619.84;;;18.74;41.13
13011;BME280;6786;57.632;11.962;2023-02-18T04:57:06;99619.00;;;18.73;41.15
13011;BME280;6786;57.632;11.962;2023-02-18T04:59:34;99619.00;;;18.73;41.21
13011;BME280;6786;57.632;11.962;2023-02-18T05:02:03;99611.13;;;18.72;41.18
13011;BME280;6786;57.632;11.962;2023-02-18T05:04:33;99620.16;;;18.71;41.24
13011;BME280;6786;57.632;11.962;2023-02-18T05:07:01;99623.53;;;18.73;41.16
13011;BME280;6786;57.632;11.962;2023-02-18T05:09:29;99628.91;;;18.73;41.17
13011;BME280;6786;57.632;11.962;2023-02-18T05:11:57;99628.91;;;18.73;41.16
13011;BME280;6786;57.632;11.962;2023-02-18T05:14:25;99599.00;;;18.52;41.19
13011;BME280;6786;57.632;11.962;2023-02-18T05:16:53;99547.00;;;18.29;41.19
13011;BME280;6786;57.632;11.962;2023-02-18T05:19:21;99620.88;;;18.73;41.22
13011;BME280;6786;57.632;11.962;2023-02-18T05:21:51;99585.78;;;18.50;41.06
13011;BME280;6786;57.632;11.962;2023-02-18T05:24:19;99630.56;;;18.74;41.23
13011;BME280;6786;57.632;11.962;2023-02-18T05:26:47;99621.69;;;18.73;41.21
13011;BME280;6786;57.632;11.962;2023-02-18T05:29:15;99577.06;;;18.48;41.15
13011;BME280;6786;57.632;11.962;2023-02-18T05:31:43;99629.72;;;18.73;41.22
13011;BME280;6786;57.632;11.962;2023-02-18T05:34:11;99579.91;;;18.47;41.04
13011;BME280;6786;57.632;11.962;2023-02-18T05:36:40;99632.22;;;18.75;41.14
13011;BME280;6786;57.632;11.962;2023-02-18T05:39:09;99625.84;;;18.68;41.08
13011;BME280;6786;57.632;11.962;2023-02-18T05:41:38;99638.44;;;18.75;41.07
13011;BME280;6786;57.632;11.962;2023-02-18T05:44:06;99642.28;;;18.73;41.06
13011;BME280;6786;57.632;11.962;2023-02-18T05:46:51;99633.88;;;18.68;41.07
13011;BME280;6786;57.632;11.962;2023-02-18T05:49:20;99643.94;;;18.74;41.10
13011;BME280;6786;57.632;11.962;2023-02-18T05:51:48;99550.66;;;18.20;41.02
13011;BME280;6786;57.632;11.962;2023-02-18T05:54:18;99641.25;;;18.74;41.03
13011;BME280;6786;57.632;11.962;2023-02-18T05:56:46;99640.41;;;18.73;41.15
13011;BME280;6786;57.632;11.962;2023-02-18T05:59:14;99641.25;;;18.74;41.13
13011;BME280;6786;57.632;11.962;2023-02-18T06:01:43;99588.41;;;18.42;41.04
13011;BME280;6786;57.632;11.962;2023-02-18T06:04:11;99590.91;;;18.44;41.09
13011;BME280;6786;57.632;11.962;2023-02-18T06:06:40;99639.59;;;18.73;41.14
13011;BME280;6786;57.632;11.962;2023-02-18T06:09:09;99630.53;;;18.66;41.07
13011;BME280;6786;57.632;11.962;2023-02-18T06:11:38;99620.50;;;18.68;41.14
13011;BME280;6786;57.632;11.962;2023-02-18T06:14:07;99644.94;;;18.73;40.98
13011;BME280;6786;57.632;11.962;2023-02-18T06:16:35;99612.44;;;18.60;40.96
13011;BME280;6786;57.632;11.962;2023-02-18T06:19:03;99623.53;;;18.73;40.98
13011;BME280;6786;57.632;11.962;2023-02-18T06:21:31;99634.25;;;18.73;41.01
13011;BME280;6786;57.632;11.962;2023-02-18T06:24:00;99628.91;;;18.73;41.06
13011;BME280;6786;57.632;11.962;2023-02-18T06:26:28;99637.91;;;18.72;40.97
13011;BME280;6786;57.632;11.962;2023-02-18T06:28:57;99639.59;;;18.73;41.05
13011;BME280;6786;57.632;11.962;2023-02-18T06:31:26;99578.88;;;18.40;41.05
13011;BME280;6786;57.632;11.962;2023-02-18T06:33:54;99639.59;;;18.73;41.00
13011;BME280;6786;57.632;11.962;2023-02-18T06:36:22;99641.25;;;18.74;40.96
13011;BME280;6786;57.632;11.962;2023-02-18T06:38:50;99583.06;;;18.42;41.03
13011;BME280;6786;57.632;11.962;2023-02-18T06:41:19;99632.03;;;18.68;40.99
13011;BME280;6786;57.632;11.962;2023-02-18T06:43:47;99634.09;;;18.74;40.87
13011;BME280;6786;57.632;11.962;2023-02-18T06:46:17;99621.13;;;18.62;40.95
13011;BME280;6786;57.632;11.962;2023-02-18T06:48:45;99607.03;;;18.52;40.93
13011;BME280;6786;57.632;11.962;2023-02-18T06:51:13;99648.28;;;18.75;41.06
13011;BME280;6786;57.632;11.962;2023-02-18T06:53:43;99642.94;;;18.75;40.96
13011;BME280;6786;57.632;11.962;2023-02-18T06:56:12;99655.34;;;18.76;41.00
13011;BME280;6786;57.632;11.962;2023-02-18T06:58:44;99642.94;;;18.75;41.02
13011;BME280;6786;57.632;11.962;2023-02-18T07:01:12;99649.13;;;18.75;41.02
13011;BME280;6786;57.632;11.962;2023-02-18T07:03:46;99638.22;;;18.69;40.99
13011;BME280;6786;57.632;11.962;2023-02-18T07:06:16;99656.31;;;18.75;41.08
13011;BME280;6786;57.632;11.962;2023-02-18T07:08:45;99647.78;;;18.71;40.95
13011;BME280;6786;57.632;11.962;2023-02-18T07:11:14;99656.78;;;18.70;41.08
13011;BME280;6786;57.632;11.962;2023-02-18T07:13:42;99664.34;;;18.75;40.96
13011;BME280;6786;57.632;11.962;2023-02-18T07:16:11;99661.00;;;18.73;40.98
13011;BME280;6786;57.632;11.962;2023-02-18T07:18:40;99666.19;;;18.74;41.02
13011;BME280;6786;57.632;11.962;2023-02-18T07:21:10;99632.16;;;18.59;41.10
13011;BME280;6786;57.632;11.962;2023-02-18T07:23:38;99667.19;;;18.73;41.16
13011;BME280;6786;57.632;11.962;2023-02-18T07:26:08;99659.31;;;18.72;40.95
13011;BME280;6786;57.632;11.962;2023-02-18T07:28:37;99657.47;;;18.64;40.99
13011;BME280;6786;57.632;11.962;2023-02-18T07:31:07;99679.59;;;18.74;40.97
13011;BME280;6786;57.632;11.962;2023-02-18T07:33:36;99673.38;;;18.74;41.02
13011;BME280;6786;57.632;11.962;2023-02-18T07:36:05;99624.72;;;18.45;41.00
13011;BME280;6786;57.632;11.962;2023-02-18T07:38:36;99651.88;;;18.58;41.10
13011;BME280;6786;57.632;11.962;2023-02-18T07:41:04;99675.06;;;18.75;40.95
13011;BME280;6786;57.632;11.962;2023-02-18T07:43:32;99669.03;;;18.73;41.01
13011;BME280;6786;57.632;11.962;2023-02-18T07:46:04;99667.50;;;18.70;40.92
13011;BME280;6786;57.632;11.962;2023-02-18T07:48:33;99609.00;;;18.42;41.06
13011;BME280;6786;57.632;11.962;2023-02-18T07:51:05;99678.41;;;18.77;41.04
13011;BME280;6786;57.632;11.962;2023-02-18T07:53:35;99680.25;;;18.76;41.04
13011;BME280;6786;57.632;11.962;2023-02-18T07:56:05;99683.78;;;18.77;41.08
13011;BME280;6786;57.632;11.962;2023-02-18T07:58:37;99682.09;;;18.76;40.82
13011;BME280;6786;57.632;11.962;2023-02-18T08:01:09;99684.78;;;18.76;40.96
13011;BME280;6786;57.632;11.962;2023-02-18T08:03:39;99634.72;;;18.43;41.04
13011;BME280;6786;57.632;11.962;2023-02-18T08:06:07;99680.41;;;18.75;41.08
13011;BME280;6786;57.632;11.962;2023-02-18T08:08:38;99638.44;;;18.50;41.02
13011;BME280;6786;57.632;11.962;2023-02-18T08:11:06;99691.13;;;18.75;41.06
13011;BME280;6786;57.632;11.962;2023-02-18T08:13:44;99683.09;;;18.75;41.00
13011;BME280;6786;57.632;11.962;2023-02-18T08:16:13;99624.34;;;18.40;40.97
13011;BME280;6786;57.632;11.962;2023-02-18T08:18:41;99678.03;;;18.72;41.28
13011;BME280;6786;57.632;11.962;2023-02-18T08:21:09;99599.59;;;18.20;41.13
13011;BME280;6786;57.632;11.962;2023-02-18T08:23:40;99699.13;;;18.75;41.07
13011;BME280;6786;57.632;11.962;2023-02-18T08:26:08;99688.44;;;18.75;41.09
13011;BME280;6786;57.632;11.962;2023-02-18T08:28:37;99696.47;;;18.75;40.99
13011;BME280;6786;57.632;11.962;2023-02-18T08:31:06;99703.53;;;18.76;41.08
13011;BME280;6786;57.632;11.962;2023-02-18T08:33:36;99708.88;;;18.76;41.06
13011;BME280;6786;57.632;11.962;2023-02-18T08:36:06;99701.81;;;18.75;41.08
13011;BME280;6786;57.632;11.962;2023-02-18T08:38:36;99703.84;;;18.73;40.91
13011;BME280;6786;57.632;11.962;2023-02-18T08:41:07;99710.84;;;18.74;40.97
13011;BME280;6786;57.632;11.962;2023-02-18T08:43:36;99711.00;;;18.72;40.97
13011;BME280;6786;57.632;11.962;2023-02-18T08:46:06;99705.81;;;18.71;41.07
13011;BME280;6786;57.632;11.962;2023-02-18T08:48:45;99712.84;;;18.72;40.98
13011;BME280;6786;57.632;11.962;2023-02-18T08:51:15;99718.19;;;18.72;40.95
13011;BME280;6786;57.632;11.962;2023-02-18T08:53:44;99717.22;;;18.73;41.06
13011;BME280;6786;57.632;11.962;2023-02-18T08:56:14;99719.88;;;18.73;41.08
13011;BME280;6786;57.632;11.962;2023-02-18T08:58:44;99720.22;;;18.70;41.03
13011;BME280;6786;57.632;11.962;2023-02-18T09:01:12;99724.41;;;18.72;41.05
13011;BME280;6786;57.632;11.962;2023-02-18T09:03:41;99720.22;;;18.70;41.08
13011;BME280;6786;57.632;11.962;2023-02-18T09:06:10;99728.91;;;18.72;41.00
13011;BME280;6786;57.632;11.962;2023-02-18T09:08:38;99676.84;;;18.41;40.98
13011;BME280;6786;57.632;11.962;2023-02-18T09:11:10;99718.00;;;18.65;41.05
13011;BME280;6786;57.632;11.962;2023-02-18T09:13:40;99740.75;;;18.69;41.08
13011;BME280;6786;57.632;11.962;2023-02-18T09:16:12;99733.28;;;18.73;41.09
13011;BME280;6786;57.632;11.962;2023-02-18T09:18:40;99734.25;;;18.72;41.09
13011;BME280;6786;57.632;11.962;2023-02-18T09:21:11;99740.47;;;18.72;41.02
13011;BME280;6786;57.632;11.962;2023-02-18T09:23:40;99751.16;;;18.72;41.13
13011;BME280;6786;57.632;11.962;2023-02-18T09:26:14;99749.34;;;18.73;41.02
13011;BME280;6786;57.632;11.962;2023-02-18T09:28:44;99750.16;;;18.73;41.08
13011;BME280;6786;57.632;11.962;2023-02-18T09:31:17;99744.97;;;18.72;41.03
13011;BME280;6786;57.632;11.962;2023-02-18T09:33:47;99741.31;;;18.73;40.95
13011;BME280;6786;57.632;11.962;2023-02-18T09:36:16;99710.31;;;18.45;41.07
13011;BME280;6786;57.632;11.962;2023-02-18T09:38:46;99737.75;;;18.64;40.91
13011;BME280;6786;57.632;11.962;2023-02-18T09:41:23;99726.66;;;18.59;41.00
13011;BME280;6786;57.632;11.962;2023-02-18T09:43:59;99749.34;;;18.73;41.17
13011;BME280;6786;57.632;11.962;2023-02-18T09:46:32;99744.91;;;18.64;41.03
13011;BME280;6786;57.632;11.962;2023-02-18T09:49:06;99703.28;;;18.44;40.96
13011;BME280;6786;57.632;11.962;2023-02-18T09:51:40;99744.97;;;18.72;40.94
13011;BME280;6786;57.632;11.962;2023-02-18T09:54:13;99741.63;;;18.70;41.08
13011;BME280;6786;57.632;11.962;2023-02-18T09:56:45;99751.16;;;18.72;40.98
13011;BME280;6786;57.632;11.962;2023-02-18T09:59:18;99744.91;;;18.64;40.96
13011;BME280;6786;57.632;11.962;2023-02-18T10:01:48;99755.66;;;18.72;41.03
13011;BME280;6786;57.632;11.962;2023-02-18T10:04:21;99753.84;;;18.72;41.09
13011;BME280;6786;57.632;11.962;2023-02-18T10:06:51;99757.38;;;18.73;41.05
13011;BME280;6786;57.632;11.962;2023-02-18T10:09:22;99753.69;;;18.74;41.05
13011;BME280;6786;57.632;11.962;2023-02-18T10:11:55;99723.13;;;18.59;41.06
13011;BME280;6786;57.632;11.962;2023-02-18T10:14:26;99752.00;;;18.73;41.06
13011;BME280;6786;57.632;11.962;2023-02-18T10:16:57;99751.00;;;18.74;41.02
13011;BME280;6786;57.632;11.962;2023-02-18T10:19:29;99723.44;;;18.56;40.90
13011;BME280;6786;57.632;11.962;2023-02-18T10:22:01;99743.97;;;18.73;41.01
13011;BME280;6786;57.632;11.962;2023-02-18T10:24:34;99750.00;;;18.75;40.94
13011;BME280;6786;57.632;11.962;2023-02-18T10:27:04;99739.59;;;18.72;40.96
13011;BME280;6786;57.632;11.962;2023-02-18T10:29:35;99751.69;;;18.76;40.92
13011;BME280;6786;57.632;11.962;2023-02-18T10:32:06;99715.38;;;18.48;40.87
13011;BME280;6786;57.632;11.962;2023-02-18T10:34:41;99757.22;;;18.74;40.93
13011;BME280;6786;57.632;11.962;2023-02-18T10:37:38;99750.00;;;18.75;40.76
13011;BME280;6786;57.632;11.962;2023-02-18T10:40:12;99737.41;;;18.67;40.83
13011;BME280;6786;57.632;11.962;2023-02-18T10:42:56;99747.47;;;18.73;40.76
13011;BME280;6786;57.632;11.962;2023-02-18T10:45:39;99738.25;;;18.68;40.76
13011;BME280;6786;57.632;11.962;2023-02-18T10:48:28;99744.97;;;18.72;40.75
13011;BME280;6786;57.632;11.962;2023-02-18T10:51:08;99754.53;;;18.74;40.89
13011;BME280;6786;57.632;11.962;2023-02-18T10:53:42;99755.50;;;18.73;40.96
13011;BME280;6786;57.632;11.962;2023-02-18T10:56:32;99748.31;;;18.74;40.64
13011;BME280;6786;57.632;11.962;2023-02-18T10:59:09;99753.69;;;18.74;40.81
13011;BME280;6786;57.632;11.962;2023-02-18T11:01:42;99762.72;;;18.73;40.86
13011;BME280;6786;57.632;11.962;2023-02-18T11:04:14;99748.31;;;18.74;40.86
13011;BME280;6786;57.632;11.962;2023-02-18T11:06:45;99752.00;;;18.73;40.85
13011;BME280;6786;57.632;11.962;2023-02-18T11:09:39;99664.63;;;18.21;40.59
13011;BME280;6786;57.632;11.962;2023-02-18T11:12:16;99746.66;;;18.73;40.92
13011;BME280;6786;57.632;11.962;2023-02-18T11:14:49;99734.53;;;18.61;40.91
13011;BME280;6786;57.632;11.962;2023-02-18T11:17:33;99753.69;;;18.74;40.83
13011;BME280;6786;57.632;11.962;2023-02-18T11:20:27;99761.00;;;18.72;40.82
13011;BME280;6786;57.632;11.962;2023-02-18T11:22:59;99720.09;;;18.54;40.92
13011;BME280;6786;57.632;11.962;2023-02-18T11:25:53;99753.69;;;18.74;40.60
13011;BME280;6786;57.632;11.962;2023-02-18T11:28:29;99753.69;;;18.74;40.82
13011;BME280;6786;57.632;11.962;2023-02-18T11:31:00;99748.31;;;18.74;40.78
13011;BME280;6786;57.632;11.962;2023-02-18T11:33:36;99747.47;;;18.73;40.85
13011;BME280;6786;57.632;11.962;2023-02-18T11:36:17;99725.13;;;18.57;40.78
13011;BME280;6786;57.632;11.962;2023-02-18T11:38:48;99759.03;;;18.74;40.78
13011;BME280;6786;57.632;11.962;2023-02-18T11:41:20;99604.25;;;17.93;40.89
13011;BME280;6786;57.632;11.962;2023-02-18T11:43:50;99640.19;;;18.16;41.04
13011;BME280;6786;57.632;11.962;2023-02-18T11:46:21;99748.31;;;18.74;40.81
13011;BME280;6786;57.632;11.962;2023-02-18T11:48:53;99748.31;;;18.74;40.85
13011;BME280;6786;57.632;11.962;2023-02-18T11:51:24;99649.22;;;18.15;40.84
13011;BME280;6786;57.632;11.962;2023-02-18T11:54:00;99678.34;;;18.26;40.89
13011;BME280;6786;57.632;11.962;2023-02-18T11:56:32;99747.47;;;18.73;40.76
13011;BME280;6786;57.632;11.962;2023-02-18T11:59:03;99742.97;;;18.74;40.81
13011;BME280;6786;57.632;11.962;2023-02-18T12:01:42;99648.91;;;18.18;40.70
13011;BME280;6786;57.632;11.962;2023-02-18T12:04:16;99748.31;;;18.74;40.82
13011;BME280;6786;57.632;11.962;2023-02-18T12:06:51;99739.28;;;18.75;40.84
13011;BME280;6786;57.632;11.962;2023-02-18T12:09:25;99588.44;;;17.82;40.75
13011;BME280;6786;57.632;11.962;2023-02-18T12:11:59;99748.31;;;18.74;40.75
13011;BME280;6786;57.632;11.962;2023-02-18T12:14:29;99744.13;;;18.71;40.79
13011;BME280;6786;57.632;11.962;2023-02-18T12:17:30;99746.66;;;18.73;40.34
13011;BME280;6786;57.632;11.962;2023-02-18T12:20:27;99743.97;;;18.73;40.41
13011;BME280;6786;57.632;11.962;2023-02-18T12:23:08;99741.31;;;18.73;40.73
13011;BME280;6786;57.632;11.962;2023-02-18T12:25:48;99664.94;;;18.18;40.71
13011;BME280;6786;57.632;11.962;2023-02-18T12:28:32;99747.28;;;18.67;40.50
13011;BME280;6786;57.632;11.962;2023-02-18T12:31:21;99752.00;;;18.73;40.47
13011;BME280;6786;57.632;11.962;2023-02-18T12:34:18;99746.66;;;18.73;40.36
13011;BME280;6786;57.632;11.962;2023-02-18T12:37:00;99741.31;;;18.73;40.50
13011;BME280;6786;57.632;11.962;2023-02-18T12:39:48;99747.63;;;18.72;40.53
13011;BME280;6786;57.632;11.962;2023-02-18T12:42:29;99740.47;;;18.72;40.57
13011;BME280;6786;57.632;11.962;2023-02-18T12:45:16;99752.00;;;18.73;40.40
13011;BME280;6786;57.632;11.962;2023-02-18T12:48:19;99752.81;;;18.73;40.27
13011;BME280;6786;57.632;11.962;2023-02-18T12:51:11;99761.00;;;18.72;40.37
13011;BME280;6786;57.632;11.962;2023-02-18T12:54:01;99744.97;;;18.72;40.56
13011;BME280;6786;57.632;11.962;2023-02-18T12:56:47;99756.81;;;18.69;40.56
13011;BME280;6786;57.632;11.962;2023-02-18T12:59:35;99664.63;;;18.21;40.28
13011;BME280;6786;57.632;11.962;2023-02-18T13:02:21;99664.63;;;18.21;40.36
13011;BME280;6786;57.632;11.962;2023-02-18T13:05:04;99755.66;;;18.72;40.39
13011;BME280;6786;57.632;11.962;2023-02-18T13:07:49;99750.31;;;18.72;40.53
13011;BME280;6786;57.632;11.962;2023-02-18T13:10:55;99747.78;;;18.70;40.16
13011;BME280;6786;57.632;11.962;2023-02-18T13:13:32;99646.47;;;18.07;40.47
13011;BME280;6786;57.632;11.962;2023-02-18T13:16:05;99755.66;;;18.72;40.48
13011;BME280;6786;57.632;11.962;2023-02-18T13:18:55;99754.31;;;18.68;40.47
13011;BME280;6786;57.632;11.962;2023-02-18T13:21:27;99752.97;;;18.72;40.36
13011;BME280;6786;57.632;11.962;2023-02-18T13:24:00;99761.88;;;18.72;40.63
13011;BME280;6786;57.632;11.962;2023-02-18T13:26:32;99755.66;;;18.72;40.52
13011;BME280;6786;57.632;11.962;2023-02-18T13:29:17;99753.69;;;18.74;40.46
13011;BME280;6786;57.632;11.962;2023-02-18T13:32:00;99752.81;;;18.73;40.36
13011;BME280;6786;57.632;11.962;2023-02-18T13:34:40;99762.72;;;18.73;40.55
13011;BME280;6786;57.632;11.962;2023-02-18T13:37:19;99755.66;;;18.72;40.40
13011;BME280;6786;57.632;11.962;2023-02-18T13:39:51;99773.44;;;18.73;40.28